sensor_id;sensor_type;location;lat;lon;timestamp;pressure;altitude;pressure_sealevel;temperature;humidity
74422;BME280;62856;51.446;8.360;2022-10-16T00:01:41;97515.38;;;12.29;100.00
74422;BME280;62856;51.446;8.360;2022-10-16T00:04:07;97522.97;;;12.27;100.00
74422;BME280;62856;51.446;8.360;2022-10-16T00:06:33;97522.19;;;12.26;100.00
74422;BME280;62856;51.446;8.360;2022-10-16T00:08:59;97524.38;;;12.24;100.00
74422;BME280;62856;51.446;8.360;2022-10-16T00:11:36;97530.91;;;12.23;100.00
74422;BME280;62856;51.446;8.360;2022-10-16T00:17:06;97518.31;;;12.19;100.00
74422;BME280;62856;51.446;8.360;2022-10-16T00:19:31;97507.63;;;12.14;100.00
74422;BME280;62856;51.446;8.360;2022-10-16T00:22:05;97510.31;;;12.14;100.00
74422;BME280;62856;51.446;8.360;2022-10-16T00:24:42;97513.38;;;12.21;100.00
74422;BME280;62856;51.446;8.360;2022-10-16T00:27:07;97511.91;;;12.15;100.00
74422;BME280;62856;51.446;8.360;2022-10-16T00:29:33;97524.81;;;12.18;100.00
74422;BME280;62856;51.446;8.360;2022-10-16T00:31:58;97522.72;;;12.15;100.00
74422;BME280;62856;51.446;8.360;2022-10-16T00:34:23;97534.63;;;12.14;100.00
74422;BME280;62856;51.446;8.360;2022-10-16T00:36:49;97529.72;;;12.16;100.00
74422;BME280;62856;51.446;8.360;2022-10-16T00:39:14;97512.53;;;12.12;100.00
74422;BME280;62856;51.446;8.360;2022-10-16T00:41:39;97531.19;;;12.22;100.00
74422;BME280;62856;51.446;8.360;2022-10-16T00:47:11;97526.91;;;12.21;100.00
74422;BME280;62856;51.446;8.360;2022-10-16T00:49:38;97536.50;;;12.27;100.00
74422;BME280;62856;51.446;8.360;2022-10-16T00:52:04;97534.88;;;12.26;100.00
74422;BME280;62856;51.446;8.360;2022-10-16T00:54:31;97536.19;;;12.28;100.00
74422;BME280;62856;51.446;8.360;2022-10-16T00:57:00;97543.47;;;12.28;100.00
74422;BME280;62856;51.446;8.360;2022-10-16T00:59:28;97533.28;;;12.25;100.00
74422;BME280;62856;51.446;8.360;2022-10-16T01:01:55;97536.00;;;12.25;100.00
74422;BME280;62856;51.446;8.360;2022-10-16T01:04:21;97553.06;;;12.34;100.00
74422;BME280;62856;51.446;8.360;2022-10-16T01:09:53;97537.84;;;12.38;100.00
74422;BME280;62856;51.446;8.360;2022-10-16T01:12:39;97532.44;;;12.38;100.00
74422;BME280;62856;51.446;8.360;2022-10-16T01:15:14;97542.31;;;12.43;100.00
74422;BME280;62856;51.446;8.360;2022-10-16T01:20:33;97543.31;;;12.47;100.00
74422;BME280;62856;51.446;8.360;2022-10-16T01:23:26;97536.59;;;12.44;100.00
74422;BME280;62856;51.446;8.360;2022-10-16T01:26:27;97543.63;;;12.45;100.00
74422;BME280;62856;51.446;8.360;2022-10-16T01:29:24;97542.81;;;12.45;100.00
74422;BME280;62856;51.446;8.360;2022-10-16T01:31:50;97544.41;;;12.46;100.00
74422;BME280;62856;51.446;8.360;2022-10-16T01:34:47;97548.72;;;12.47;100.00
74422;BME280;62856;51.446;8.360;2022-10-16T01:37:16;97549.81;;;12.46;100.00
74422;BME280;62856;51.446;8.360;2022-10-16T01:39:45;97543.72;;;12.40;100.00
74422;BME280;62856;51.446;8.360;2022-10-16T01:42:20;97539.25;;;12.36;100.00
74422;BME280;62856;51.446;8.360;2022-10-16T01:44:48;97538.88;;;12.28;100.00
74422;BME280;62856;51.446;8.360;2022-10-16T01:47:14;97534.38;;;12.24;100.00
74422;BME280;62856;51.446;8.360;2022-10-16T01:49:40;97529.63;;;12.07;100.00
74422;BME280;62856;51.446;8.360;2022-10-16T01:52:13;97546.66;;;12.08;100.00
74422;BME280;62856;51.446;8.360;2022-10-16T01:54:42;97553.38;;;12.10;100.00
74422;BME280;62856;51.446;8.360;2022-10-16T01:57:10;97580.69;;;12.09;100.00
74422;BME280;62856;51.446;8.360;2022-10-16T01:59:40;97572.19;;;12.02;100.00
74422;BME280;62856;51.446;8.360;2022-10-16T02:02:09;97562.69;;;12.04;100.00
74422;BME280;62856;51.446;8.360;2022-10-16T02:04:40;97576.00;;;12.01;100.00
74422;BME280;62856;51.446;8.360;2022-10-16T02:07:07;97566.78;;;12.02;100.00
74422;BME280;62856;51.446;8.360;2022-10-16T02:09:33;97564.06;;;12.02;100.00
74422;BME280;62856;51.446;8.360;2022-10-16T02:12:03;97566.41;;;11.95;100.00
74422;BME280;62856;51.446;8.360;2022-10-16T02:14:32;97550.25;;;11.81;100.00
74422;BME280;62856;51.446;8.360;2022-10-16T02:16:57;97552.63;;;11.83;100.00
74422;BME280;62856;51.446;8.360;2022-10-16T02:19:23;97553.44;;;11.83;100.00
74422;BME280;62856;51.446;8.360;2022-10-16T02:21:51;97556.13;;;11.83;100.00
74422;BME280;62856;51.446;8.360;2022-10-16T02:24:32;97563.94;;;11.85;100.00
74422;BME280;62856;51.446;8.360;2022-10-16T02:27:05;97569.53;;;11.88;100.00
74422;BME280;62856;51.446;8.360;2022-10-16T02:29:37;97569.84;;;11.87;100.00
74422;BME280;62856;51.446;8.360;2022-10-16T02:32:06;97566.53;;;11.90;100.00
74422;BME280;62856;51.446;8.360;2022-10-16T02:34:33;97578.25;;;11.85;100.00
74422;BME280;62856;51.446;8.360;2022-10-16T02:37:00;97560.94;;;11.73;100.00
74422;BME280;62856;51.446;8.360;2022-10-16T02:39:28;97576.56;;;11.76;100.00
74422;BME280;62856;51.446;8.360;2022-10-16T02:41:54;97569.84;;;11.73;100.00
74422;BME280;62856;51.446;8.360;2022-10-16T02:44:19;97567.44;;;11.72;100.00
74422;BME280;62856;51.446;8.360;2022-10-16T02:46:44;97570.78;;;11.69;100.00
74422;BME280;62856;51.446;8.360;2022-10-16T02:49:10;97585.53;;;11.71;100.00
74422;BME280;62856;51.446;8.360;2022-10-16T02:51:35;97583.75;;;11.67;100.00
74422;BME280;62856;51.446;8.360;2022-10-16T02:54:02;97577.44;;;11.71;100.00
74422;BME280;62856;51.446;8.360;2022-10-16T02:56:27;97583.16;;;11.70;100.00
74422;BME280;62856;51.446;8.360;2022-10-16T02:58:52;97568.06;;;11.69;100.00
74422;BME280;62856;51.446;8.360;2022-10-16T03:01:18;97571.84;;;11.68;100.00
74422;BME280;62856;51.446;8.360;2022-10-16T03:03:43;97565.94;;;11.66;100.00
74422;BME280;62856;51.446;8.360;2022-10-16T03:06:08;97577.25;;;11.68;100.00
74422;BME280;62856;51.446;8.360;2022-10-16T03:08:34;97584.63;;;11.62;100.00
74422;BME280;62856;51.446;8.360;2022-10-16T03:10:59;97580.84;;;11.63;100.00
74422;BME280;62856;51.446;8.360;2022-10-16T03:13:25;97583.53;;;11.77;100.00
74422;BME280;62856;51.446;8.360;2022-10-16T03:15:50;97565.88;;;11.71;100.00
74422;BME280;62856;51.446;8.360;2022-10-16T03:18:16;97580.97;;;11.72;100.00
74422;BME280;62856;51.446;8.360;2022-10-16T03:20:42;97585.66;;;11.66;100.00
74422;BME280;62856;51.446;8.360;2022-10-16T03:23:08;97576.84;;;11.61;100.00
74422;BME280;62856;51.446;8.360;2022-10-16T03:25:34;97569.47;;;11.53;100.00
74422;BME280;62856;51.446;8.360;2022-10-16T03:27:59;97575.06;;;11.56;100.00
74422;BME280;62856;51.446;8.360;2022-10-16T03:30:25;97579.53;;;11.61;100.00
74422;BME280;62856;51.446;8.360;2022-10-16T03:32:50;97577.25;;;11.68;100.00
74422;BME280;62856;51.446;8.360;2022-10-16T03:35:20;97579.66;;;11.69;100.00
74422;BME280;62856;51.446;8.360;2022-10-16T03:37:45;97572.03;;;11.71;100.00
74422;BME280;62856;51.446;8.360;2022-10-16T03:40:11;97581.16;;;11.75;100.00
74422;BME280;62856;51.446;8.360;2022-10-16T03:42:36;97586.53;;;11.75;100.00
74422;BME280;62856;51.446;8.360;2022-10-16T03:45:01;97578.13;;;11.77;100.00
74422;BME280;62856;51.446;8.360;2022-10-16T03:47:27;97582.34;;;11.83;100.00
74422;BME280;62856;51.446;8.360;2022-10-16T03:49:52;97576.13;;;11.82;100.00
74422;BME280;62856;51.446;8.360;2022-10-16T03:52:17;97568.22;;;11.86;100.00
74422;BME280;62856;51.446;8.360;2022-10-16T03:54:43;97552.50;;;11.88;100.00
74422;BME280;62856;51.446;8.360;2022-10-16T03:57:08;97545.91;;;11.94;100.00
74422;BME280;62856;51.446;8.360;2022-10-16T03:59:34;97545.41;;;11.92;100.00
74422;BME280;62856;51.446;8.360;2022-10-16T04:01:59;97545.53;;;11.87;100.00
74422;BME280;62856;51.446;8.360;2022-10-16T04:04:24;97542.34;;;11.85;100.00
74422;BME280;62856;51.446;8.360;2022-10-16T04:06:50;97556.34;;;11.87;100.00
74422;BME280;62856;51.446;8.360;2022-10-16T04:09:15;97569.03;;;11.86;100.00
74422;BME280;62856;51.446;8.360;2022-10-16T04:11:41;97565.53;;;11.86;100.00
74422;BME280;62856;51.446;8.360;2022-10-16T04:14:06;97562.31;;;11.84;100.00
74422;BME280;62856;51.446;8.360;2022-10-16T04:16:31;97561.03;;;11.81;100.00
74422;BME280;62856;51.446;8.360;2022-10-16T04:18:57;97571.41;;;11.88;100.00
74422;BME280;62856;51.446;8.360;2022-10-16T04:21:22;97565.63;;;11.81;100.00
74422;BME280;62856;51.446;8.360;2022-10-16T04:23:48;97582.47;;;11.78;100.00
74422;BME280;62856;51.446;8.360;2022-10-16T04:26:14;97590.44;;;11.69;100.00
74422;BME280;62856;51.446;8.360;2022-10-16T04:28:39;97591.44;;;11.60;100.00
74422;BME280;62856;51.446;8.360;2022-10-16T04:31:06;97578.44;;;11.48;100.00
74422;BME280;62856;51.446;8.360;2022-10-16T04:33:31;97597.63;;;11.60;100.00
74422;BME280;62856;51.446;8.360;2022-10-16T04:35:58;97592.53;;;11.59;100.00
74422;BME280;62856;51.446;8.360;2022-10-16T04:38:24;97587.84;;;11.51;100.00
74422;BME280;62856;51.446;8.360;2022-10-16T04:40:49;97596.63;;;11.43;100.00
74422;BME280;62856;51.446;8.360;2022-10-16T04:43:15;97601.84;;;11.39;100.00
74422;BME280;62856;51.446;8.360;2022-10-16T04:45:40;97604.22;;;11.41;100.00
74422;BME280;62856;51.446;8.360;2022-10-16T04:48:06;97599.13;;;11.39;100.00
74422;BME280;62856;51.446;8.360;2022-10-16T04:50:31;97599.13;;;11.39;100.00
74422;BME280;62856;51.446;8.360;2022-10-16T04:52:56;97605.53;;;11.29;100.00
74422;BME280;62856;51.446;8.360;2022-10-16T04:55:22;97620.44;;;11.27;100.00
74422;BME280;62856;51.446;8.360;2022-10-16T04:57:47;97609.34;;;11.28;100.00
74422;BME280;62856;51.446;8.360;2022-10-16T05:00:13;97610.94;;;11.43;100.00
74422;BME280;62856;51.446;8.360;2022-10-16T05:02:38;97618.84;;;11.40;100.00
74422;BME280;62856;51.446;8.360;2022-10-16T05:05:04;97620.81;;;11.34;100.00
74422;BME280;62856;51.446;8.360;2022-10-16T05:07:29;97623.63;;;11.43;100.00
74422;BME280;62856;51.446;8.360;2022-10-16T05:09:54;97625.31;;;11.25;100.00
74422;BME280;62856;51.446;8.360;2022-10-16T05:12:20;97630.56;;;11.16;100.00
74422;BME280;62856;51.446;8.360;2022-10-16T05:14:45;97628.19;;;11.15;100.00
74422;BME280;62856;51.446;8.360;2022-10-16T05:17:11;97625.59;;;11.10;100.00
74422;BME280;62856;51.446;8.360;2022-10-16T05:19:36;97615.19;;;11.03;100.00
74422;BME280;62856;51.446;8.360;2022-10-16T05:22:02;97605.28;;;10.99;100.00
74422;BME280;62856;51.446;8.360;2022-10-16T05:24:27;97608.94;;;10.89;100.00
74422;BME280;62856;51.446;8.360;2022-10-16T05:26:53;97622.53;;;10.84;100.00
74422;BME280;62856;51.446;8.360;2022-10-16T05:29:19;97625.53;;;10.83;100.00
74422;BME280;62856;51.446;8.360;2022-10-16T05:31:44;97627.50;;;10.77;100.00
74422;BME280;62856;51.446;8.360;2022-10-16T05:34:10;97625.97;;;10.71;100.00
74422;BME280;62856;51.446;8.360;2022-10-16T05:36:35;97632.25;;;10.67;100.00
74422;BME280;62856;51.446;8.360;2022-10-16T05:39:01;97644.41;;;10.64;100.00
74422;BME280;62856;51.446;8.360;2022-10-16T05:41:26;97652.63;;;10.73;100.00
74422;BME280;62856;51.446;8.360;2022-10-16T05:43:52;97657.66;;;10.79;100.00
74422;BME280;62856;51.446;8.360;2022-10-16T05:46:18;97640.88;;;10.82;100.00
74422;BME280;62856;51.446;8.360;2022-10-16T05:48:44;97646.19;;;10.87;100.00
74422;BME280;62856;51.446;8.360;2022-10-16T05:51:12;97654.53;;;10.91;100.00
74422;BME280;62856;51.446;8.360;2022-10-16T05:53:39;97669.19;;;10.98;100.00
74422;BME280;62856;51.446;8.360;2022-10-16T05:56:06;97675.31;;;11.04;100.00
74422;BME280;62856;51.446;8.360;2022-10-16T05:58:36;97673.94;;;11.06;100.00
74422;BME280;62856;51.446;8.360;2022-10-16T06:01:10;97672.75;;;11.12;100.00
74422;BME280;62856;51.446;8.360;2022-10-16T06:03:36;97676.16;;;11.18;100.00
74422;BME280;62856;51.446;8.360;2022-10-16T06:06:18;97692.97;;;11.28;100.00
74422;BME280;62856;51.446;8.360;2022-10-16T06:08:46;97686.88;;;11.23;100.00
74422;BME280;62856;51.446;8.360;2022-10-16T06:11:15;97696.19;;;11.30;100.00
74422;BME280;62856;51.446;8.360;2022-10-16T06:13:40;97687.38;;;11.39;100.00
74422;BME280;62856;51.446;8.360;2022-10-16T06:16:11;97684.41;;;11.54;100.00
74422;BME280;62856;51.446;8.360;2022-10-16T06:18:37;97682.22;;;11.56;100.00
74422;BME280;62856;51.446;8.360;2022-10-16T06:21:17;97695.91;;;11.59;100.00
74422;BME280;62856;51.446;8.360;2022-10-16T06:23:43;97705.09;;;11.58;100.00
74422;BME280;62856;51.446;8.360;2022-10-16T06:26:22;97710.28;;;11.55;100.00
74422;BME280;62856;51.446;8.360;2022-10-16T06:28:48;97712.94;;;11.60;100.00
74422;BME280;62856;51.446;8.360;2022-10-16T06:31:32;97711.00;;;11.60;100.00
74422;BME280;62856;51.446;8.360;2022-10-16T06:33:59;97715.66;;;11.73;100.00
74422;BME280;62856;51.446;8.360;2022-10-16T06:36:25;97717.16;;;11.93;100.00
74422;BME280;62856;51.446;8.360;2022-10-16T06:38:50;97718.28;;;11.92;100.00
74422;BME280;62856;51.446;8.360;2022-10-16T06:41:18;97719.28;;;11.96;100.00
74422;BME280;62856;51.446;8.360;2022-10-16T06:43:44;97722.97;;;12.00;100.00
74422;BME280;62856;51.446;8.360;2022-10-16T06:46:12;97724.16;;;12.07;100.00
74422;BME280;62856;51.446;8.360;2022-10-16T06:48:38;97738.09;;;12.14;100.00
74422;BME280;62856;51.446;8.360;2022-10-16T06:51:10;97748.47;;;12.21;100.00
74422;BME280;62856;51.446;8.360;2022-10-16T06:53:37;97737.38;;;12.22;100.00
74422;BME280;62856;51.446;8.360;2022-10-16T06:58:34;97749.28;;;12.21;100.00
74422;BME280;62856;51.446;8.360;2022-10-16T07:00:59;97743.28;;;12.24;100.00
74422;BME280;62856;51.446;8.360;2022-10-16T07:03:25;97751.19;;;12.21;100.00
74422;BME280;62856;51.446;8.360;2022-10-16T07:05:50;97753.88;;;12.21;100.00
74422;BME280;62856;51.446;8.360;2022-10-16T07:08:15;97766.78;;;12.24;100.00
74422;BME280;62856;51.446;8.360;2022-10-16T07:10:41;97768.38;;;12.39;100.00
74422;BME280;62856;51.446;8.360;2022-10-16T07:13:06;97761.78;;;12.45;100.00
74422;BME280;62856;51.446;8.360;2022-10-16T07:15:33;97775.69;;;12.52;100.00
74422;BME280;62856;51.446;8.360;2022-10-16T07:18:04;97767.16;;;12.58;100.00
74422;BME280;62856;51.446;8.360;2022-10-16T07:20:30;97763.34;;;12.59;100.00
74422;BME280;62856;51.446;8.360;2022-10-16T07:22:55;97773.88;;;12.61;100.00
74422;BME280;62856;51.446;8.360;2022-10-16T07:25:20;97778.47;;;12.60;100.00
74422;BME280;62856;51.446;8.360;2022-10-16T07:27:46;97787.06;;;12.62;100.00
74422;BME280;62856;51.446;8.360;2022-10-16T07:30:11;97795.28;;;12.71;100.00
74422;BME280;62856;51.446;8.360;2022-10-16T07:32:37;97805.81;;;12.72;100.00
74422;BME280;62856;51.446;8.360;2022-10-16T07:35:03;97806.50;;;12.78;100.00
74422;BME280;62856;51.446;8.360;2022-10-16T07:37:28;97810.09;;;12.87;100.00
74422;BME280;62856;51.446;8.360;2022-10-16T07:39:53;97808.44;;;12.99;100.00
74422;BME280;62856;51.446;8.360;2022-10-16T07:42:19;97813.78;;;13.04;100.00
74422;BME280;62856;51.446;8.360;2022-10-16T07:44:45;97819.19;;;13.04;100.00
74422;BME280;62856;51.446;8.360;2022-10-16T07:47:10;97824.69;;;12.99;100.00
74422;BME280;62856;51.446;8.360;2022-10-16T07:49:36;97838.81;;;12.96;100.00
74422;BME280;62856;51.446;8.360;2022-10-16T07:52:01;97836.09;;;12.96;100.00
74422;BME280;62856;51.446;8.360;2022-10-16T07:54:26;97838.63;;;12.93;100.00
74422;BME280;62856;51.446;8.360;2022-10-16T07:56:52;97832.22;;;13.02;100.00
74422;BME280;62856;51.446;8.360;2022-10-16T07:59:17;97849.72;;;13.18;100.00
74422;BME280;62856;51.446;8.360;2022-10-16T08:01:42;97825.00;;;13.33;100.00
74422;BME280;62856;51.446;8.360;2022-10-16T08:04:08;97835.50;;;13.49;100.00
74422;BME280;62856;51.446;8.360;2022-10-16T08:06:39;97835.84;;;13.56;100.00
74422;BME280;62856;51.446;8.360;2022-10-16T08:09:06;97839.75;;;13.63;100.00
74422;BME280;62856;51.446;8.360;2022-10-16T08:11:32;97845.81;;;13.69;100.00
74422;BME280;62856;51.446;8.360;2022-10-16T08:13:57;97851.94;;;13.74;100.00
74422;BME280;62856;51.446;8.360;2022-10-16T08:16:23;97853.16;;;13.68;100.00
74422;BME280;62856;51.446;8.360;2022-10-16T08:18:48;97850.97;;;13.57;100.00
74422;BME280;62856;51.446;8.360;2022-10-16T08:21:16;97856.09;;;13.58;100.00
74422;BME280;62856;51.446;8.360;2022-10-16T08:23:42;97858.00;;;13.58;100.00
74422;BME280;62856;51.446;8.360;2022-10-16T08:26:09;97868.09;;;13.66;100.00
74422;BME280;62856;51.446;8.360;2022-10-16T08:28:35;97874.31;;;13.66;100.00
74422;BME280;62856;51.446;8.360;2022-10-16T08:31:19;97869.41;;;13.68;100.00
74422;BME280;62856;51.446;8.360;2022-10-16T08:33:45;97872.84;;;13.60;100.00
74422;BME280;62856;51.446;8.360;2022-10-16T08:36:12;97876.66;;;13.81;100.00
74422;BME280;62856;51.446;8.360;2022-10-16T08:38:38;97887.50;;;14.03;100.00
74422;BME280;62856;51.446;8.360;2022-10-16T08:46:27;97898.78;;;14.50;98.74
74422;BME280;62856;51.446;8.360;2022-10-16T08:48:57;97889.09;;;14.66;95.74
74422;BME280;62856;51.446;8.360;2022-10-16T08:51:27;97899.03;;;14.79;94.24
74422;BME280;62856;51.446;8.360;2022-10-16T08:53:57;97900.25;;;15.03;91.98
74422;BME280;62856;51.446;8.360;2022-10-16T08:56:24;97901.69;;;15.01;93.70
74422;BME280;62856;51.446;8.360;2022-10-16T08:58:51;97895.00;;;14.68;91.15
74422;BME280;62856;51.446;8.360;2022-10-16T09:01:19;97916.31;;;14.91;90.47
74422;BME280;62856;51.446;8.360;2022-10-16T09:06:44;97914.72;;;15.47;85.15
74422;BME280;62856;51.446;8.360;2022-10-16T09:09:35;97914.25;;;15.87;86.62
74422;BME280;62856;51.446;8.360;2022-10-16T09:12:12;97922.47;;;17.26;79.88
74422;BME280;62856;51.446;8.360;2022-10-16T09:14:55;97923.25;;;17.97;73.55
74422;BME280;62856;51.446;8.360;2022-10-16T09:20:16;97926.38;;;19.21;67.79
74422;BME280;62856;51.446;8.360;2022-10-16T09:22:44;97926.59;;;18.80;64.76
74422;BME280;62856;51.446;8.360;2022-10-16T09:25:15;97926.03;;;18.86;67.17
74422;BME280;62856;51.446;8.360;2022-10-16T09:27:42;97928.78;;;17.88;68.62
74422;BME280;62856;51.446;8.360;2022-10-16T09:30:19;97929.94;;;18.20;67.30
74422;BME280;62856;51.446;8.360;2022-10-16T09:32:48;97927.63;;;17.89;69.03
74422;BME280;62856;51.446;8.360;2022-10-16T09:35:20;97938.06;;;17.17;71.45
74422;BME280;62856;51.446;8.360;2022-10-16T09:37:50;97949.53;;;16.38;75.90
74422;BME280;62856;51.446;8.360;2022-10-16T09:42:52;97962.69;;;15.60;77.36
74422;BME280;62856;51.446;8.360;2022-10-16T09:45:22;97961.16;;;15.28;80.51
74422;BME280;62856;51.446;8.360;2022-10-16T09:47:49;97962.22;;;16.09;77.21
74422;BME280;62856;51.446;8.360;2022-10-16T09:50:24;97966.78;;;16.68;74.82
74422;BME280;62856;51.446;8.360;2022-10-16T09:53:02;97956.00;;;16.00;76.29
74422;BME280;62856;51.446;8.360;2022-10-16T09:55:27;97966.53;;;15.84;78.02
74422;BME280;62856;51.446;8.360;2022-10-16T09:57:54;97962.94;;;16.69;77.53
74422;BME280;62856;51.446;8.360;2022-10-16T10:00:21;97953.72;;;16.19;74.73
74422;BME280;62856;51.446;8.360;2022-10-16T10:02:47;97970.84;;;15.60;77.99
74422;BME280;62856;51.446;8.360;2022-10-16T10:05:24;97970.66;;;15.48;80.02
74422;BME280;62856;51.446;8.360;2022-10-16T10:08:01;97981.59;;;16.16;72.85
74422;BME280;62856;51.446;8.360;2022-10-16T10:10:38;97981.13;;;16.94;73.85
74422;BME280;62856;51.446;8.360;2022-10-16T10:13:18;97976.69;;;17.98;68.80
74422;BME280;62856;51.446;8.360;2022-10-16T10:15:44;97973.81;;;17.45;70.99
74422;BME280;62856;51.446;8.360;2022-10-16T10:18:17;97964.25;;;18.86;62.38
74422;BME280;62856;51.446;8.360;2022-10-16T10:20:43;97949.50;;;19.11;66.87
74422;BME280;62856;51.446;8.360;2022-10-16T10:23:23;97959.50;;;20.07;62.06
74422;BME280;62856;51.446;8.360;2022-10-16T10:38:56;97970.66;;;21.79;53.47
74422;BME280;62856;51.446;8.360;2022-10-16T10:46:47;97975.94;;;21.87;51.80
74422;BME280;62856;51.446;8.360;2022-10-16T11:01:29;97989.13;;;19.05;57.67
74422;BME280;62856;51.446;8.360;2022-10-16T11:04:03;97989.72;;;18.78;58.44
74422;BME280;62856;51.446;8.360;2022-10-16T11:06:44;97981.38;;;18.51;59.01
74422;BME280;62856;51.446;8.360;2022-10-16T11:09:18;97983.66;;;19.17;60.54
74422;BME280;62856;51.446;8.360;2022-10-16T11:12:00;97985.16;;;20.27;53.12
74422;BME280;62856;51.446;8.360;2022-10-16T11:14:35;97974.19;;;21.13;50.21
74422;BME280;62856;51.446;8.360;2022-10-16T11:17:08;97981.88;;;21.23;50.41
74422;BME280;62856;51.446;8.360;2022-10-16T11:19:57;97974.53;;;22.31;47.75
74422;BME280;62856;51.446;8.360;2022-10-16T11:22:48;97979.06;;;21.86;47.03
74422;BME280;62856;51.446;8.360;2022-10-16T11:25:27;97970.09;;;20.49;52.71
74422;BME280;62856;51.446;8.360;2022-10-16T11:30:29;97977.59;;;20.36;54.17
74422;BME280;62856;51.446;8.360;2022-10-16T11:35:54;97975.91;;;20.07;56.02
74422;BME280;62856;51.446;8.360;2022-10-16T11:40:52;97970.38;;;21.84;49.56
74422;BME280;62856;51.446;8.360;2022-10-16T11:43:39;97967.56;;;21.65;48.10
74422;BME280;62856;51.446;8.360;2022-10-16T11:46:17;97964.06;;;21.49;49.71
74422;BME280;62856;51.446;8.360;2022-10-16T11:48:59;97980.06;;;21.97;47.40
74422;BME280;62856;51.446;8.360;2022-10-16T11:56:29;97981.75;;;23.46;44.87
74422;BME280;62856;51.446;8.360;2022-10-16T11:59:05;97962.75;;;23.60;41.98
74422;BME280;62856;51.446;8.360;2022-10-16T12:01:44;97975.13;;;23.47;44.20
74422;BME280;62856;51.446;8.360;2022-10-16T12:04:24;97973.16;;;24.29;41.09
74422;BME280;62856;51.446;8.360;2022-10-16T12:07:08;97973.13;;;23.99;43.49
74422;BME280;62856;51.446;8.360;2022-10-16T12:09:40;97980.06;;;24.79;38.70
74422;BME280;62856;51.446;8.360;2022-10-16T12:12:25;97968.09;;;24.68;37.40
74422;BME280;62856;51.446;8.360;2022-10-16T12:15:20;97982.16;;;23.96;39.90
74422;BME280;62856;51.446;8.360;2022-10-16T12:17:46;97984.47;;;23.94;38.40
74422;BME280;62856;51.446;8.360;2022-10-16T12:22:41;97980.47;;;22.33;41.18
74422;BME280;62856;51.446;8.360;2022-10-16T12:25:24;97981.03;;;21.85;43.95
74422;BME280;62856;51.446;8.360;2022-10-16T12:27:55;97976.69;;;23.02;42.27
74422;BME280;62856;51.446;8.360;2022-10-16T12:30:23;97983.78;;;23.49;42.17
74422;BME280;62856;51.446;8.360;2022-10-16T12:33:02;97973.31;;;24.10;38.47
74422;BME280;62856;51.446;8.360;2022-10-16T12:35:33;97980.16;;;24.23;40.83
74422;BME280;62856;51.446;8.360;2022-10-16T12:38:18;97973.00;;;25.25;36.59
74422;BME280;62856;51.446;8.360;2022-10-16T12:40:47;97981.16;;;24.08;38.46
74422;BME280;62856;51.446;8.360;2022-10-16T12:46:01;97984.78;;;24.45;38.01
74422;BME280;62856;51.446;8.360;2022-10-16T12:48:27;97984.34;;;25.16;37.76
74422;BME280;62856;51.446;8.360;2022-10-16T12:50:53;97996.00;;;24.96;37.46
74422;BME280;62856;51.446;8.360;2022-10-16T12:53:25;97995.69;;;25.04;35.74
74422;BME280;62856;51.446;8.360;2022-10-16T12:58:40;98008.94;;;23.73;39.81
74422;BME280;62856;51.446;8.360;2022-10-16T13:10:14;98008.72;;;23.59;41.48
74422;BME280;62856;51.446;8.360;2022-10-16T13:26:13;98013.22;;;23.97;39.94
74422;BME280;62856;51.446;8.360;2022-10-16T13:28:42;98021.56;;;23.74;41.55
74422;BME280;62856;51.446;8.360;2022-10-16T13:31:16;98021.63;;;24.34;39.62
74422;BME280;62856;51.446;8.360;2022-10-16T13:33:47;98027.84;;;24.60;38.39
74422;BME280;62856;51.446;8.360;2022-10-16T13:36:33;98024.56;;;23.92;38.66
74422;BME280;62856;51.446;8.360;2022-10-16T13:39:11;98030.19;;;24.25;38.76
74422;BME280;62856;51.446;8.360;2022-10-16T13:41:38;98024.38;;;23.55;40.43
74422;BME280;62856;51.446;8.360;2022-10-16T13:44:19;98029.38;;;23.72;38.93
74422;BME280;62856;51.446;8.360;2022-10-16T13:46:46;98027.44;;;24.25;39.66
74422;BME280;62856;51.446;8.360;2022-10-16T13:49:16;98036.34;;;24.74;38.20
74422;BME280;62856;51.446;8.360;2022-10-16T13:55:14;98035.81;;;24.06;38.64
74422;BME280;62856;51.446;8.360;2022-10-16T13:57:40;98040.09;;;23.55;39.16
74422;BME280;62856;51.446;8.360;2022-10-16T14:00:23;98034.69;;;23.36;39.37
74422;BME280;62856;51.446;8.360;2022-10-16T14:02:57;98039.59;;;23.98;40.21
74422;BME280;62856;51.446;8.360;2022-10-16T14:05:24;98030.16;;;23.99;40.15
74422;BME280;62856;51.446;8.360;2022-10-16T14:07:51;98039.31;;;23.80;40.50
74422;BME280;62856;51.446;8.360;2022-10-16T14:10:31;98041.03;;;23.40;39.94
74422;BME280;62856;51.446;8.360;2022-10-16T14:13:03;98045.97;;;24.02;41.08
74422;BME280;62856;51.446;8.360;2022-10-16T14:15:31;98047.69;;;23.61;42.21
74422;BME280;62856;51.446;8.360;2022-10-16T14:17:56;98054.94;;;22.86;43.71
74422;BME280;62856;51.446;8.360;2022-10-16T14:20:26;98059.59;;;22.63;42.77
74422;BME280;62856;51.446;8.360;2022-10-16T14:23:03;98050.41;;;22.74;43.67
74422;BME280;62856;51.446;8.360;2022-10-16T14:25:31;98051.69;;;22.99;44.26
74422;BME280;62856;51.446;8.360;2022-10-16T14:28:13;98035.06;;;22.73;45.09
74422;BME280;62856;51.446;8.360;2022-10-16T14:30:55;98039.56;;;22.62;43.71
74422;BME280;62856;51.446;8.360;2022-10-16T14:36:13;98041.19;;;23.05;44.23
74422;BME280;62856;51.446;8.360;2022-10-16T14:38:41;98039.75;;;22.92;44.22
74422;BME280;62856;51.446;8.360;2022-10-16T14:41:07;98039.47;;;22.59;43.93
74422;BME280;62856;51.446;8.360;2022-10-16T14:43:35;98037.53;;;22.59;44.66
74422;BME280;62856;51.446;8.360;2022-10-16T14:46:04;98033.31;;;22.27;44.69
74422;BME280;62856;51.446;8.360;2022-10-16T14:48:32;98041.75;;;22.18;44.61
74422;BME280;62856;51.446;8.360;2022-10-16T14:50:57;98050.25;;;21.94;45.88
74422;BME280;62856;51.446;8.360;2022-10-16T14:53:22;98058.13;;;21.65;46.80